Detall de PIREP

Printer-friendly versionPDF version

[2011/04/30 17:59:00]
Flight IATA:CT1005
Pilot Number:042
Company ICAO:CAT
Aircraft Type:B744/E
PAX:300
Departing Airport: LKPR
Destination Airport: LCLK
Alternate Airport:OLBA
Online: VATSIM
Route:VOZ UL993 IVOLI UZ650 BERVA UM748 DEGET UP184 ABRED UL606 EKI UL854 KULAR UT39 TOMBI UA16 DASNI UM601 DAROS
Flight Level:F370
No Slew and time accel
No pause
Crash detect
Detect pilot in Cockpit between each 30 and 45 minutes
17:59 Zero fuel Weight: 466688 Lbs, Fuel Weight: 382771 Lbs
17:59 VATSIM:LKPR 301730Z 36008KT CAVOK 13/08 Q1008 NOSIG
17:59 VATSIM:LCLK 301730Z 31008KT 290V020 9999 FEW040 20/15 Q1008 NOSIG
18:00 VOICE CATALONIAN/EU TOUR ETAPA 2
18:06 Parking Brakes off
18:20 Take-off
18:20 Take off Weight: 838730 Lbs
18:20 Wind: 359 @ 007 Knots Heading: 062
18:20 POS N50 06 41 E014 15 29
18:20 Gear Up: 193 Knots
18:20 Flaps:4 at 193 Knots
18:21 Flaps:3at 213 Knots
18:21 Flaps:2 at 241 Knots
18:21 Flaps:1 at 250 Knots
18:22 Flaps:0 at 279 Knots
18:35 Wind:112@011 Knots Heading: 117 Ground Speed: 447 Knots Altitude 22647 ft
18:50 Wind:151@010 Knots Heading: 127 Ground Speed: 473 Knots Altitude 31450 ft
19:05 Wind:260@044 Knots Heading: 132 Ground Speed: 538 Knots Altitude 30810 ft
19:20 Wind:267@066 Knots Heading: 156 Ground Speed: 539 Knots Altitude 30800 ft
19:35 Wind:272@064 Knots Heading: 140 Ground Speed: 555 Knots Altitude 30843 ft
19:50 Wind:295@068 Knots Heading: 139 Ground Speed: 575 Knots Altitude 30889 ft
20:06 Wind:311@073 Knots Heading: 162 Ground Speed: 571 Knots Altitude 30898 ft
20:21 Wind:315@076 Knots Heading: 146 Ground Speed: 585 Knots Altitude 30931 ft
20:36 Wind:318@077 Knots Heading: 119 Ground Speed: 584 Knots Altitude 30882 ft
20:51 Wind:291@019 Knots Heading: 031 Ground Speed: 338 Knots Altitude 12631 ft
20:53 Flaps:1 at 246 Knots
20:53 Flaps:2 at 243 Knots
20:54 Flaps:3 at 225 Knots
20:55 Flaps:2 at 210 Knots
20:58 Flaps:3 at 211 Knots
20:59 Flaps:4 at 182 Knots
21:00 Gear Down: 179 Knots
21:01 Flaps:5 at 179 Knots
21:01 Flaps:6 at 179 Knots
21:01 Flaps:5 at 179 Knots
21:01 Flaps:6 at 177 Knots
21:01 Flaps:5 at 178 Knots
21:01 Flaps:6 at 178 Knots
21:01 Flaps:5 at 176 Knots
21:01 Flaps:6 at 176 Knots
21:01 Flaps:5 at 175 Knots
21:01 Flaps:6 at 174 Knots
21:01 Flaps:5 at 173 Knots
21:01 Flaps:6 at 172 Knots
21:01 Flaps:5 at 171 Knots
21:01 Flaps:6 at 171 Knots
21:01 Flaps:5 at 172 Knots
21:01 Flaps:6 at 171 Knots
21:01 Flaps:5 at 170 Knots
21:01 Flaps:6 at 169 Knots
21:04 TouchDown:Rate -161 ft/min Speed: 155 Knots
21:05 VATSIM:LCLK 302030Z 29005KT 9999 FEW050 18/13 Q1010 NOSIG
21:05 Land
21:05 Wind:286@005 Knots
21:05 Heading: 225
21:05 Flight Duration: 02:45
21:05 Landing Weight: 752479 Lbs
21:05 POS N34 52 11 E033 37 08
21:09 Parking brakes on
21:09 Block to Block Duration: 03:03
21:09 Final Fuel: 291120 Lbls
21:09 Spent Fuel: 91651 Lbls
21:09 Flight Length: 1067 NM
21:09 TOD Land Length: 1067 NM

Exportar CSV

Powered by Drupal - Modified by Danger4k